»·PEaware :: SNAKE11 KSBP-KSAN

SNAKE11 :: KSBP-KSAN

FLIGHT INFORMATION

Flight Status: Arrived
Operator: Unknown
More flights by this operator :: More flights under this callsign
Pilot: Matthew M. (27032)
Aircraft: GENERAL DYNAMICS F-16 FIGHTING FALCON
(F16)
More flights by this aircraft type
Origin: KSBP San Luis Co Regl
United States
Destination: KSAN San Diego Intl-Lindbergh
United States
More flights between these airports :: More routes between these airports
Route: GVO VTU SXC HUBRD1
File this flight plan on PilotEdge
Remarks:
Altitude:
(Current/Filed)
11,000ft
Speed:
(Current/Filed)
400kts
Departed: 24-Nov-21 09:45 PM
Arrived: 24-Nov-21 10:22 PM
Distance/Time
Traveled:
229nm/0:37
Distance/Time
To Go:
Arrived

Flight Plot

Page will automatically refresh every two minutes.

Flight plan parsing failed; only flown route is shown


Map Options




Map Legend


Flown Route
Filed Route
Departure Airport
Arrival Airport
Navaid (VOR, NDB)
Fix

Horizontal Profiles

Position Reports

Time Latitude Longitude Heading Altitude Ground
Speed
24-Nov-21 21:23 35.236431 -120.635848 141 217ft 0kts
24-Nov-21 21:24 35.236431 -120.635848 141 217ft 0kts
24-Nov-21 21:25 35.236431 -120.635848 141 217ft 0kts
24-Nov-21 21:26 35.236431 -120.635848 141 217ft 0kts
24-Nov-21 21:27 35.236431 -120.635848 141 217ft 0kts
24-Nov-21 21:28 35.236431 -120.635848 141 217ft 0kts
24-Nov-21 21:29 35.236431 -120.635848 141 217ft 0kts
24-Nov-21 21:30 35.236431 -120.635848 141 217ft 0kts
24-Nov-21 21:31 35.236431 -120.635848 141 217ft 0kts
24-Nov-21 21:32 35.236431 -120.635848 141 217ft 0kts
24-Nov-21 21:33 35.236431 -120.635848 141 217ft 0kts
24-Nov-21 21:34 35.236431 -120.635848 141 217ft 0kts
24-Nov-21 21:35 35.236431 -120.635848 141 217ft 0kts
24-Nov-21 21:36 35.236431 -120.635848 141 217ft 0kts
24-Nov-21 21:37 35.236431 -120.635848 141 217ft 0kts
24-Nov-21 21:38 35.236431 -120.635848 141 217ft 0kts
24-Nov-21 21:39 35.236431 -120.635848 141 217ft 0kts
24-Nov-21 21:40 35.236431 -120.635848 141 217ft 0kts
24-Nov-21 21:41 35.236431 -120.635848 141 217ft 0kts
24-Nov-21 21:41 35.236431 -120.635848 141 217ft 0kts
24-Nov-21 21:43 35.234176 -120.633582 124 217ft 13kts
24-Nov-21 21:44 35.232900 -120.632617 234 217ft 13kts
24-Nov-21 21:45 35.240907 -120.647186 305 342ft 276kts
24-Nov-21 21:46 35.290974 -120.743805 299 4291ft 439kts
24-Nov-21 21:46 35.279488 -120.871739 227 8100ft 459kts
24-Nov-21 21:48 35.163964 -120.839820 136 13456ft 424kts
24-Nov-21 21:49 35.073506 -120.743237 133 18737ft 452kts
24-Nov-21 21:50 34.976321 -120.637645 132 22782ft 489kts
24-Nov-21 21:50 34.884081 -120.536810 133 23301ft 567kts
24-Nov-21 21:51 34.765340 -120.406497 132 23290ft 583kts
24-Nov-21 21:52 34.649474 -120.269542 129 23295ft 583kts
24-Nov-21 21:54 34.529403 -120.094900 116 23293ft 571kts
24-Nov-21 21:55 34.441384 -119.933674 117 23282ft 574kts
24-Nov-21 21:55 34.367186 -119.799471 118 23283ft 575kts
24-Nov-21 21:56 34.291207 -119.632405 109 23284ft 565kts
24-Nov-21 21:57 34.223498 -119.461129 107 23284ft 563kts
24-Nov-21 21:58 34.162796 -119.287397 104 23280ft 559kts
24-Nov-21 21:59 34.116517 -119.110003 97 23276ft 551kts
24-Nov-21 22:00 34.017458 -118.968673 145 23282ft 597kts
24-Nov-21 22:01 33.874416 -118.866613 143 23247ft 599kts
24-Nov-21 22:02 33.733633 -118.761231 142 23239ft 597kts
24-Nov-21 22:03 33.596623 -118.651454 139 23241ft 594kts
24-Nov-21 22:04 33.465265 -118.533489 134 23263ft 588kts
24-Nov-21 22:05 33.371933 -118.386043 99 23290ft 547kts
24-Nov-21 22:06 33.337545 -118.219387 89 20582ft 470kts
24-Nov-21 22:07 33.323760 -118.071723 92 15048ft 443kts
24-Nov-21 22:08 33.305420 -117.906609 94 10238ft 542kts
24-Nov-21 22:09 33.281862 -117.748379 98 10048ft 430kts
24-Nov-21 22:10 33.262443 -117.617742 95 10063ft 420kts
24-Nov-21 22:11 33.186870 -117.486465 132 10054ft 514kts
24-Nov-21 22:12 33.072434 -117.390864 152 9594ft 511kts
24-Nov-21 22:13 32.953203 -117.319766 152 4966ft 436kts
24-Nov-21 22:14 32.846486 -117.260747 153 4971ft 451kts
24-Nov-21 22:15 32.767605 -117.166455 103 4992ft 378kts
24-Nov-21 22:16 32.741200 -117.049124 108 2683ft 362kts
24-Nov-21 22:17 32.715074 -117.112787 284 2013ft 285kts
24-Nov-21 22:18 32.747392 -117.197261 26 1563ft 249kts
24-Nov-21 22:19 32.749333 -117.136743 92 1234ft 184kts
24-Nov-21 22:20 32.727936 -117.165928 285 326ft 161kts
24-Nov-21 22:21 32.735092 -117.195968 284 21ft 19kts
24-Nov-21 22:22 32.734575 -117.198108 110 22ft 13kts
24-Nov-21 22:23 32.733141 -117.191901 68 21ft 15kts
24-Nov-21 22:24 32.734007 -117.186816 107 20ft 28kts
24-Nov-21 22:25 32.732251 -117.179560 105 19ft 17kts
24-Nov-21 22:26 32.732258 -117.177399 106 23ft 0kts

Navigation Log

Ident Type
Flight plan parsing failed, navigation log unavailable